createdAt,value
2022-10-21T00:00:21.045Z,10.69
2022-10-21T00:01:21.300Z,10.67
2022-10-21T00:02:21.024Z,10.67
2022-10-21T00:03:21.323Z,10.61
2022-10-21T00:04:21.005Z,10.72
2022-10-21T00:05:21.023Z,10.63
2022-10-21T00:06:20.718Z,10.69
2022-10-21T00:07:20.960Z,10.67
2022-10-21T00:08:20.694Z,10.67
2022-10-21T00:09:21.196Z,10.65
2022-10-21T00:10:20.667Z,10.67
2022-10-21T00:11:21.167Z,10.73
2022-10-21T00:12:20.642Z,10.69
2022-10-21T00:13:21.141Z,10.75
2022-10-21T00:14:20.886Z,10.72
2022-10-21T00:15:20.863Z,10.79
2022-10-21T00:16:21.115Z,10.77
2022-10-21T00:17:21.096Z,10.73
2022-10-21T00:18:21.082Z,10.8
2022-10-21T00:19:20.866Z,10.84
2022-10-21T00:20:20.649Z,10.84
2022-10-21T00:21:21.070Z,10.8
2022-10-21T00:22:20.775Z,10.85
2022-10-21T00:23:20.765Z,10.84
2022-10-21T00:24:20.750Z,10.8
2022-10-21T00:25:20.746Z,10.77
2022-10-21T00:26:21.517Z,10.76
2022-10-21T00:27:21.493Z,10.72
2022-10-21T00:28:21.481Z,10.69
2022-10-21T00:30:21.455Z,10.67
2022-10-21T00:31:21.446Z,10.69
2022-10-21T00:32:21.177Z,10.67
2022-10-21T00:33:21.416Z,10.67
2022-10-21T00:34:21.665Z,10.65
2022-10-21T00:35:21.450Z,10.63
2022-10-21T00:36:21.130Z,10.54
2022-10-21T00:37:21.655Z,10.54
2022-10-21T00:39:21.598Z,10.57
2022-10-21T00:40:21.330Z,10.54
2022-10-21T00:41:21.575Z,10.55
2022-10-21T00:42:21.307Z,10.54
2022-10-21T00:43:21.304Z,10.55
2022-10-21T00:44:21.537Z,10.57
2022-10-21T00:45:21.016Z,10.54
2022-10-21T00:46:21.255Z,10.61
2022-10-21T00:47:21.248Z,10.54
2022-10-21T00:48:21.230Z,10.61
2022-10-21T00:49:21.224Z,10.58
2022-10-21T00:50:21.466Z,10.52
2022-10-21T00:51:21.509Z,10.58
2022-10-21T00:52:20.927Z,10.57
2022-10-21T00:53:21.201Z,10.59
2022-10-21T00:54:20.906Z,10.55
2022-10-21T00:55:21.159Z,10.59
2022-10-21T00:56:21.233Z,10.54
2022-10-21T00:57:20.874Z,10.59
2022-10-21T00:58:21.371Z,10.59
2022-10-21T00:59:21.097Z,10.59
2022-10-21T01:00:21.089Z,10.66
2022-10-21T01:01:25.140Z,10.59
2022-10-21T01:02:20.809Z,10.54
2022-10-21T01:03:21.057Z,10.58
2022-10-21T01:04:20.784Z,10.59
2022-10-21T01:05:21.279Z,10.54
2022-10-21T01:06:21.020Z,10.55
2022-10-21T01:07:21.304Z,10.55
2022-10-21T01:08:21.243Z,10.52
2022-10-21T01:09:21.159Z,10.47
2022-10-21T01:10:21.221Z,10.51
2022-10-21T01:11:20.947Z,10.49
2022-10-21T01:12:20.940Z,10.47
2022-10-21T01:13:20.665Z,10.44
2022-10-21T01:14:20.912Z,10.46
2022-10-21T01:15:21.159Z,10.44
2022-10-21T01:16:21.144Z,10.44
2022-10-21T01:17:48.588Z,10.47
2022-10-21T01:18:21.127Z,10.49
2022-10-21T01:19:21.128Z,10.52
2022-10-21T01:20:20.838Z,10.47
2022-10-21T01:21:20.567Z,10.55
2022-10-21T01:22:21.069Z,10.49
2022-10-21T01:23:21.103Z,10.49
2022-10-21T01:24:20.530Z,10.58
2022-10-21T01:25:21.063Z,10.59
2022-10-21T01:26:20.769Z,10.54
2022-10-21T01:27:20.759Z,10.57
2022-10-21T01:28:20.738Z,10.55
2022-10-21T01:29:20.984Z,10.52
2022-10-21T01:30:20.716Z,10.49
2022-10-21T01:31:20.699Z,10.52
2022-10-21T01:32:20.686Z,10.51
2022-10-21T01:34:20.670Z,10.52
2022-10-21T01:35:20.913Z,10.54
2022-10-21T01:36:20.907Z,10.47
2022-10-21T01:37:20.881Z,10.46
2022-10-21T01:38:20.684Z,10.46
2022-10-21T01:39:20.905Z,10.41
2022-10-21T01:40:20.335Z,10.44
2022-10-21T01:41:20.854Z,10.35
2022-10-21T01:42:20.579Z,10.36
2022-10-21T01:43:20.553Z,10.23
2022-10-21T01:44:20.540Z,10.21
2022-10-21T01:45:20.273Z,10.26
2022-10-21T01:46:20.263Z,10.25
2022-10-21T01:47:20.272Z,10.17
2022-10-21T01:48:20.494Z,10.08
2022-10-21T01:49:20.237Z,10.02
2022-10-21T01:50:20.213Z,10.14
2022-10-21T01:51:20.613Z,10.1
2022-10-21T01:52:20.188Z,10.03
2022-10-21T01:53:20.168Z,9.93
2022-10-21T01:54:20.161Z,9.93
2022-10-21T01:55:20.457Z,9.92
2022-10-21T01:56:20.446Z,9.81
2022-10-21T01:57:20.666Z,9.8
2022-10-21T01:58:20.620Z,9.81
2022-10-21T01:59:20.358Z,9.8
2022-10-21T02:00:20.535Z,9.82
2022-10-21T02:01:20.433Z,9.74
2022-10-21T02:02:20.313Z,9.75
2022-10-21T02:03:20.560Z,9.7
2022-10-21T02:04:20.549Z,9.67
2022-10-21T02:05:20.277Z,9.74
2022-10-21T02:06:20.269Z,9.63
2022-10-21T02:07:20.249Z,9.7
2022-10-21T02:08:20.233Z,9.66
2022-10-21T02:09:20.790Z,9.6
2022-10-21T02:10:20.467Z,9.57
2022-10-21T02:11:20.506Z,9.6
2022-10-21T02:12:20.186Z,9.59
2022-10-21T02:13:20.459Z,9.62
2022-10-21T02:14:20.501Z,9.62
2022-10-21T02:15:19.895Z,9.47
2022-10-21T02:16:20.388Z,9.48
2022-10-21T02:17:20.117Z,9.52
2022-10-21T02:18:20.126Z,9.52
2022-10-21T02:19:20.269Z,9.53
2022-10-21T02:20:20.337Z,9.52
2022-10-21T02:21:19.811Z,9.48
2022-10-21T02:22:20.311Z,9.45
2022-10-21T02:23:20.299Z,9.47
2022-10-21T02:24:20.179Z,9.52
2022-10-21T02:25:20.270Z,9.47
2022-10-21T02:26:20.002Z,9.48
2022-10-21T02:27:20.299Z,9.47
2022-10-21T02:28:19.977Z,9.5
2022-10-21T02:29:20.248Z,9.55
2022-10-21T02:30:20.201Z,9.53
2022-10-21T02:31:20.202Z,9.45
2022-10-21T02:32:19.931Z,9.56
2022-10-21T02:33:19.911Z,9.59
2022-10-21T02:34:20.213Z,9.64
2022-10-21T02:35:19.885Z,9.72
2022-10-21T02:36:20.132Z,9.72
2022-10-21T02:37:20.122Z,9.7
2022-10-21T02:38:20.110Z,9.75
2022-10-21T02:39:19.580Z,9.75
2022-10-21T02:40:19.839Z,9.78
2022-10-21T02:41:19.808Z,9.74
2022-10-21T02:42:20.048Z,9.77
2022-10-21T02:43:20.106Z,9.81
2022-10-21T02:44:20.094Z,9.8
2022-10-21T02:45:19.781Z,9.8
2022-10-21T02:46:19.746Z,9.8
2022-10-21T02:47:20.000Z,9.74
2022-10-21T02:48:19.716Z,9.75
2022-10-21T02:49:19.702Z,9.72
2022-10-21T02:50:19.694Z,9.75
2022-10-21T02:51:19.690Z,9.74
2022-10-21T02:52:19.920Z,9.7
2022-10-21T02:53:19.650Z,9.8
2022-10-21T02:54:19.638Z,9.81
2022-10-21T02:55:19.368Z,9.75
2022-10-21T02:56:19.777Z,9.75
2022-10-21T02:57:19.609Z,9.78
2022-10-21T02:58:19.328Z,9.75
2022-10-21T02:59:19.885Z,9.8
2022-10-21T03:00:19.589Z,9.78
2022-10-21T03:01:19.776Z,9.71
2022-10-21T03:02:19.532Z,9.67
2022-10-21T03:03:19.522Z,9.71
2022-10-21T03:04:19.539Z,9.66
2022-10-21T03:05:19.261Z,9.7
2022-10-21T03:06:19.737Z,9.66
2022-10-21T03:07:19.722Z,9.77
2022-10-21T03:08:19.714Z,9.74
2022-10-21T03:09:19.197Z,9.78
2022-10-21T03:10:19.468Z,9.8
2022-10-21T03:11:19.158Z,9.75
2022-10-21T03:12:19.667Z,9.77
2022-10-21T03:13:19.393Z,9.8
2022-10-21T03:14:19.380Z,9.8
2022-10-21T03:15:19.418Z,9.85
2022-10-21T03:17:24.448Z,9.77
2022-10-21T03:18:19.339Z,9.81
2022-10-21T03:19:19.311Z,9.92
2022-10-21T03:20:19.043Z,9.98
2022-10-21T03:21:19.024Z,9.96
2022-10-21T03:22:19.537Z,9.95
2022-10-21T03:23:19.007Z,9.95
2022-10-21T03:24:31.004Z,10
2022-10-21T03:25:19.282Z,9.99
2022-10-21T03:26:19.473Z,9.99
2022-10-21T03:27:19.510Z,9.98
2022-10-21T03:28:19.218Z,9.93
2022-10-21T03:29:19.444Z,9.9
2022-10-21T03:30:19.430Z,9.98
2022-10-21T03:31:19.217Z,10.1
2022-10-21T03:32:19.166Z,9.98
2022-10-21T03:49:37.440Z,9.74
2022-10-21T03:50:36.645Z,9.75
2022-10-21T03:51:37.150Z,9.71
2022-10-21T03:52:37.205Z,9.64
2022-10-21T03:53:47.510Z,9.56
2022-10-21T03:54:37.097Z,9.57
2022-10-21T03:55:37.083Z,9.45
2022-10-21T03:56:36.803Z,9.47
2022-10-21T03:57:36.850Z,9.48
2022-10-21T03:58:36.777Z,9.44
2022-10-21T03:59:36.768Z,9.53
2022-10-21T04:00:37.003Z,9.48
2022-10-21T04:01:37.211Z,9.41
2022-10-21T04:02:37.294Z,9.37
2022-10-21T04:03:36.456Z,9.38
2022-10-21T04:04:36.489Z,9.29
2022-10-21T04:05:37.025Z,9.38
2022-10-21T04:06:36.923Z,9.32
2022-10-21T04:07:36.653Z,9.29
2022-10-21T04:08:36.831Z,9.3
2022-10-21T04:09:36.885Z,9.3
2022-10-21T04:10:36.610Z,9.3
2022-10-21T04:11:36.356Z,9.3
2022-10-21T04:12:36.809Z,9.3
2022-10-21T04:13:36.573Z,9.2
2022-10-21T04:14:36.307Z,9.26
2022-10-21T04:15:36.810Z,9.21
2022-10-21T04:16:36.535Z,9.29
2022-10-21T04:17:36.515Z,9.2
2022-10-21T04:18:36.779Z,9.21
2022-10-21T04:19:36.500Z,9.17
2022-10-21T04:20:36.736Z,9.2
2022-10-21T04:21:36.797Z,9.17
2022-10-21T04:22:36.927Z,9.24
2022-10-21T04:23:36.444Z,9.2
2022-10-21T04:24:36.420Z,9.19
2022-10-21T04:25:36.669Z,9.19
2022-10-21T04:26:36.395Z,9.24
2022-10-21T04:27:36.386Z,9.21
2022-10-21T04:28:36.120Z,9.21
2022-10-21T04:29:37.366Z,9.2
2022-10-21T04:30:36.838Z,9.17
2022-10-21T04:31:36.846Z,9.26
2022-10-21T04:32:37.273Z,9.21
2022-10-21T04:33:37.066Z,9.3
2022-10-21T04:34:36.813Z,9.3
2022-10-21T04:35:37.027Z,9.32
2022-10-21T04:36:37.042Z,9.29
2022-10-21T04:37:37.332Z,9.29
2022-10-21T04:38:37.240Z,9.34
2022-10-21T04:39:36.992Z,9.34
2022-10-21T04:40:36.966Z,9.41
2022-10-21T04:41:36.946Z,9.35
2022-10-21T04:42:37.202Z,9.26
2022-10-21T04:43:36.945Z,9.27
2022-10-21T04:44:36.906Z,9.42
2022-10-21T04:45:37.389Z,9.47
2022-10-21T04:46:37.634Z,9.52
2022-10-21T04:47:38.144Z,9.52
2022-10-21T04:48:37.605Z,9.45
2022-10-21T04:49:37.087Z,9.47
2022-10-21T04:50:37.322Z,9.45
2022-10-21T04:51:37.901Z,9.45
2022-10-21T04:52:37.775Z,9.45
2022-10-21T04:53:37.615Z,9.48
2022-10-21T04:54:37.270Z,9.5
2022-10-21T04:55:37.257Z,9.48
2022-10-21T04:56:37.242Z,9.55
2022-10-21T04:57:36.972Z,9.5
2022-10-21T04:58:37.495Z,9.52
2022-10-21T04:59:37.460Z,9.52
2022-10-21T05:00:37.433Z,9.44
2022-10-21T05:01:37.379Z,9.52
2022-10-21T05:02:37.103Z,9.5
2022-10-21T05:03:36.905Z,9.47
2022-10-21T05:04:37.396Z,9.45
2022-10-21T05:05:37.135Z,9.39
2022-10-21T05:06:37.378Z,9.45
2022-10-21T05:07:37.372Z,9.41
2022-10-21T05:08:37.283Z,9.27
2022-10-21T05:09:37.417Z,9.34
2022-10-21T05:10:37.325Z,9.38
2022-10-21T05:11:37.046Z,9.32
2022-10-21T05:12:38.112Z,9.27
2022-10-21T05:13:37.279Z,9.42
2022-10-21T05:14:36.758Z,9.42
2022-10-21T05:15:36.989Z,9.5
2022-10-21T05:16:36.978Z,9.39
2022-10-21T05:17:37.330Z,9.27
2022-10-21T05:18:36.949Z,9.3
2022-10-21T05:19:36.938Z,9.32
2022-10-21T05:20:36.677Z,9.34
2022-10-21T05:22:37.082Z,9.34
2022-10-21T05:23:36.631Z,9.29
2022-10-21T05:24:36.889Z,9.29
2022-10-21T05:25:39.378Z,9.29
2022-10-21T05:26:36.596Z,9.17
2022-10-21T05:27:36.832Z,9.24
2022-10-21T05:28:37.075Z,9.19
2022-10-21T05:29:36.806Z,9.2
2022-10-21T05:30:36.749Z,9.2
2022-10-21T05:31:36.785Z,9.21
2022-10-21T05:32:36.834Z,9.2
2022-10-21T05:33:36.822Z,9.16
2022-10-21T05:34:36.746Z,9.24
2022-10-21T05:35:36.730Z,9.16
2022-10-21T05:36:36.708Z,9.01
2022-10-21T05:37:36.955Z,9.11
2022-10-21T05:38:36.680Z,9.04
2022-10-21T05:39:36.657Z,9.08
2022-10-21T05:40:36.660Z,9
2022-10-21T05:41:36.977Z,9.08
2022-10-21T05:42:36.945Z,9.03
2022-10-21T05:43:36.937Z,9.04
2022-10-21T05:44:36.856Z,9.03
2022-10-21T05:45:36.595Z,9.09
2022-10-21T05:46:36.320Z,9
2022-10-21T05:47:36.569Z,9
2022-10-21T05:48:36.697Z,9.04
2022-10-21T05:49:36.796Z,9.01
2022-10-21T05:50:36.778Z,8.98
2022-10-21T05:51:36.514Z,8.92
2022-10-21T05:52:36.769Z,8.9
2022-10-21T05:53:36.485Z,8.97
2022-10-21T05:54:36.468Z,8.95
2022-10-21T05:55:36.198Z,8.94
2022-10-21T05:56:36.695Z,8.85
2022-10-21T05:57:36.847Z,8.9
2022-10-21T05:58:36.414Z,8.95
2022-10-21T05:59:36.400Z,8.89
2022-10-21T06:00:36.459Z,8.87
2022-10-21T06:01:36.971Z,9
2022-10-21T06:02:36.909Z,8.94
2022-10-21T06:03:36.344Z,8.92
2022-10-21T06:04:42.381Z,8.97
2022-10-21T06:05:36.322Z,8.98
2022-10-21T06:06:36.302Z,9.04
2022-10-21T06:07:36.171Z,9.01
2022-10-21T06:08:36.849Z,8.95
2022-10-21T06:09:36.261Z,9
2022-10-21T06:10:36.250Z,8.94
2022-10-21T06:11:36.494Z,9
2022-10-21T06:12:36.223Z,9.11
2022-10-21T06:13:36.543Z,9.01
2022-10-21T06:14:35.940Z,8.98
2022-10-21T06:15:36.444Z,9.01
2022-10-21T06:16:36.186Z,9.14
2022-10-21T06:17:36.612Z,9.05
2022-10-21T06:18:36.418Z,9.21
2022-10-21T06:19:36.137Z,9.19
2022-10-21T06:20:36.186Z,9.16
2022-10-21T06:21:35.857Z,9.26
2022-10-21T06:22:36.099Z,9.2
2022-10-21T06:23:36.080Z,9.32
2022-10-21T06:24:36.332Z,9.35
2022-10-21T06:25:36.052Z,9.34
2022-10-21T06:26:40.673Z,9.29
2022-10-21T06:27:36.352Z,9.32
2022-10-21T06:28:36.267Z,9.37
2022-10-21T06:29:36.326Z,9.35
2022-10-21T06:30:36.235Z,9.39
2022-10-21T06:31:36.225Z,9.42
2022-10-21T06:32:35.714Z,9.48
2022-10-21T06:33:35.943Z,9.47
2022-10-21T06:34:36.227Z,9.48
2022-10-21T06:35:35.920Z,9.55
2022-10-21T06:36:35.648Z,9.55
2022-10-21T06:37:36.194Z,9.48
2022-10-21T06:38:36.142Z,9.47
2022-10-21T06:39:36.115Z,9.62
2022-10-21T06:40:35.853Z,9.62
2022-10-21T06:41:35.836Z,9.64
2022-10-21T06:42:36.086Z,9.67
2022-10-21T06:43:35.807Z,9.81
2022-10-21T06:44:35.794Z,9.8
2022-10-21T06:45:36.117Z,9.89
2022-10-21T06:46:35.545Z,9.95
2022-10-21T06:47:36.309Z,9.92
2022-10-21T06:48:35.741Z,10.07
2022-10-21T06:49:35.739Z,10
2022-10-21T06:50:35.974Z,10.02
2022-10-21T06:51:35.703Z,10.05
2022-10-21T06:52:35.954Z,9.99
2022-10-21T06:53:41.672Z,9.99
2022-10-21T06:54:35.673Z,10.1
2022-10-21T06:55:35.659Z,10.08
2022-10-21T06:56:35.640Z,10.13
2022-10-21T06:57:36.025Z,10.11
2022-10-21T06:58:35.623Z,10.03
2022-10-21T06:59:35.853Z,10.14
2022-10-21T07:00:35.600Z,10.13
2022-10-21T07:02:08.613Z,10.15
2022-10-21T07:02:35.999Z,10.18
2022-10-21T07:03:35.292Z,10.23
2022-10-21T07:04:35.817Z,10.26
2022-10-21T07:05:35.776Z,10.25
2022-10-21T07:06:35.539Z,10.31
2022-10-21T07:07:35.253Z,10.29
2022-10-21T07:09:00.732Z,10.38
2022-10-21T07:09:35.751Z,10.38
2022-10-21T07:10:35.725Z,10.33
2022-10-21T07:11:35.703Z,10.42
2022-10-21T07:12:35.182Z,10.39
2022-10-21T07:13:35.166Z,10.38
2022-10-21T07:14:35.405Z,10.41
2022-10-21T07:15:35.666Z,10.41
2022-10-21T07:16:35.388Z,10.44
2022-10-21T07:17:35.866Z,10.36
2022-10-21T07:18:38.021Z,10.39
2022-10-21T07:19:35.088Z,10.33
2022-10-21T07:20:35.585Z,10.41
2022-10-21T07:21:35.321Z,10.44
2022-10-21T07:22:35.304Z,10.49
2022-10-21T07:23:35.299Z,10.55
2022-10-21T07:24:35.282Z,10.58
2022-10-21T07:25:35.284Z,10.73
2022-10-21T07:26:35.517Z,10.66
2022-10-21T07:27:35.123Z,10.73
2022-10-21T07:28:35.489Z,10.79
2022-10-21T07:29:35.480Z,10.85
2022-10-21T07:30:35.467Z,10.91
2022-10-21T07:31:35.213Z,10.91
2022-10-21T07:32:35.439Z,10.91
2022-10-21T07:33:35.517Z,10.98
2022-10-21T07:34:35.177Z,10.88
2022-10-21T07:35:35.148Z,10.94
2022-10-21T07:36:35.392Z,10.9
2022-10-21T07:37:35.475Z,10.92
2022-10-21T07:38:35.371Z,10.95
2022-10-21T07:39:35.357Z,10.94
2022-10-21T07:40:35.091Z,10.9
2022-10-21T07:41:34.817Z,10.87
2022-10-21T07:42:35.317Z,10.91
2022-10-21T07:43:35.053Z,11
2022-10-21T07:44:35.300Z,10.92
2022-10-21T07:45:35.030Z,10.95
2022-10-21T07:46:35.691Z,10.97
2022-10-21T07:47:35.524Z,10.91
2022-10-21T07:48:35.399Z,10.9
2022-10-21T07:49:35.715Z,10.91
2022-10-21T07:50:35.372Z,10.98
2022-10-21T07:51:36.063Z,11.08
2022-10-21T07:52:48.263Z,11.06
2022-10-21T07:53:35.342Z,11.05
2022-10-21T07:54:35.576Z,11.08
2022-10-21T07:55:35.308Z,11.13
2022-10-21T07:56:35.051Z,11.12
2022-10-21T07:57:35.547Z,11.12
2022-10-21T07:58:35.532Z,11.2
2022-10-21T07:59:35.009Z,11.3
2022-10-21T08:00:35.509Z,11.3
2022-10-21T08:01:35.884Z,11.35
2022-10-21T08:02:35.481Z,11.41
2022-10-21T08:03:34.963Z,11.35
2022-10-21T08:04:35.463Z,11.39
2022-10-21T08:05:35.523Z,11.46
2022-10-21T08:06:35.182Z,11.45
2022-10-21T08:07:35.433Z,11.34
2022-10-21T08:08:36.186Z,11.41
2022-10-21T08:09:36.239Z,11.49
2022-10-21T08:10:36.160Z,11.48
2022-10-21T08:11:35.689Z,11.57
2022-10-21T08:12:36.499Z,11.51
2022-10-21T08:13:36.184Z,11.61
2022-10-21T08:14:36.181Z,11.7
2022-10-21T08:15:36.160Z,11.73
2022-10-21T08:16:35.906Z,11.79
2022-10-21T08:17:36.150Z,11.76
2022-10-21T08:18:35.879Z,11.85
2022-10-21T08:19:36.112Z,11.97
2022-10-21T08:20:35.851Z,11.97
2022-10-21T08:21:36.161Z,12.01
2022-10-21T08:22:36.289Z,11.94
2022-10-21T08:23:35.810Z,11.95
2022-10-21T08:24:38.562Z,11.91
2022-10-21T08:25:35.537Z,11.94
2022-10-21T08:26:35.779Z,11.88
2022-10-21T08:27:35.781Z,11.98
2022-10-21T08:28:35.754Z,12.03
2022-10-21T08:29:41.295Z,12.05
2022-10-21T08:30:36.106Z,12.13
2022-10-21T08:31:36.078Z,12.18
2022-10-21T08:32:36.905Z,12.22
2022-10-21T08:33:36.054Z,12.26
2022-10-21T08:34:36.559Z,12.31
2022-10-21T08:35:36.290Z,12.41
2022-10-21T08:36:36.019Z,12.37
2022-10-21T08:37:36.601Z,12.44
2022-10-21T08:38:36.264Z,12.47
2022-10-21T08:39:36.257Z,12.52
2022-10-21T08:40:36.241Z,12.51
2022-10-21T08:41:36.481Z,12.53
2022-10-21T08:42:36.759Z,12.58
2022-10-21T08:43:36.205Z,12.62
2022-10-21T08:44:36.449Z,12.71
2022-10-21T08:45:36.442Z,12.76
2022-10-21T08:46:36.427Z,12.74
2022-10-21T08:47:35.975Z,12.86
2022-10-21T08:48:36.148Z,12.92
2022-10-21T08:49:36.147Z,12.92
2022-10-21T08:50:35.871Z,13.01
2022-10-21T08:51:36.375Z,13.13
2022-10-21T08:52:36.250Z,13.11
2022-10-21T08:53:36.576Z,13.27
2022-10-21T08:54:36.486Z,13.2
2022-10-21T08:55:36.473Z,13.27
2022-10-21T08:56:36.471Z,13.2
2022-10-21T08:57:36.430Z,13.29
2022-10-21T08:58:35.946Z,13.31
2022-10-21T08:59:36.187Z,13.37
2022-10-21T09:00:36.435Z,13.37
2022-10-21T09:01:36.411Z,13.44
2022-10-21T09:02:36.285Z,13.47
2022-10-21T09:03:36.395Z,13.44
2022-10-21T09:04:36.385Z,13.48
2022-10-21T09:05:35.867Z,13.53
2022-10-21T09:06:36.362Z,13.51
2022-10-21T09:07:36.654Z,13.7
2022-10-21T09:08:36.571Z,13.73
2022-10-21T09:09:36.416Z,13.81
2022-10-21T09:10:36.078Z,13.86
2022-10-21T09:11:36.309Z,13.87
2022-10-21T09:12:35.789Z,13.94
2022-10-21T09:13:35.781Z,13.95
2022-10-21T09:14:36.401Z,14.05
2022-10-21T09:15:36.626Z,14.05
2022-10-21T09:16:36.613Z,14.03
2022-10-21T09:17:36.922Z,14.11
2022-10-21T09:18:36.082Z,14.16
2022-10-21T09:19:36.333Z,14.09
2022-10-21T09:20:36.578Z,14.23
2022-10-21T09:21:36.567Z,14.26
2022-10-21T09:22:40.642Z,14.28
2022-10-21T09:23:37.320Z,14.33
2022-10-21T09:24:36.307Z,14.3
2022-10-21T09:25:36.605Z,14.38
2022-10-21T09:26:36.010Z,14.44
2022-10-21T09:28:00.162Z,14.44
2022-10-21T09:28:36.249Z,14.34
2022-10-21T09:29:36.245Z,14.33
2022-10-21T09:30:36.232Z,14.31
2022-10-21T09:31:36.232Z,14.45
2022-10-21T09:32:36.216Z,14.49
2022-10-21T09:33:36.459Z,14.46
2022-10-21T09:34:35.941Z,14.52
2022-10-21T09:35:36.451Z,14.6
2022-10-21T09:36:36.803Z,14.66
2022-10-21T09:37:40.862Z,14.67
2022-10-21T09:38:36.791Z,14.77
2022-10-21T09:39:37.034Z,14.82
2022-10-21T09:40:37.035Z,14.86
2022-10-21T09:41:37.091Z,14.87
2022-10-21T09:42:53.935Z,14.87
2022-10-21T09:43:36.744Z,14.9
2022-10-21T09:44:36.987Z,14.95
2022-10-21T09:45:36.997Z,15.02
2022-10-21T09:46:36.715Z,14.97
2022-10-21T09:47:36.462Z,14.97
2022-10-21T09:49:47.607Z,14.9
2022-10-21T09:50:22.959Z,14.77
2022-10-21T09:51:22.393Z,14.87
2022-10-21T09:52:22.384Z,14.86
2022-10-21T09:53:28.737Z,14.83
2022-10-21T09:54:22.622Z,14.8
2022-10-21T09:55:22.357Z,14.86
2022-10-21T09:56:22.091Z,14.79
2022-10-21T09:57:22.671Z,14.83
2022-10-21T09:58:22.599Z,14.83
2022-10-21T09:59:22.358Z,14.77
2022-10-21T10:00:22.571Z,14.74
2022-10-21T10:01:22.305Z,14.7
2022-10-21T10:02:22.538Z,14.7
2022-10-21T10:03:22.037Z,14.67
2022-10-21T10:04:22.307Z,14.69
2022-10-21T10:05:22.289Z,14.79
2022-10-21T10:06:22.274Z,14.74
2022-10-21T10:07:22.510Z,14.69
2022-10-21T10:08:22.246Z,14.7
2022-10-21T10:09:22.249Z,14.7
2022-10-21T10:10:21.972Z,14.8
2022-10-21T10:11:22.225Z,14.59
2022-10-21T10:12:22.207Z,14.69
2022-10-21T10:13:22.549Z,14.67
2022-10-21T10:14:22.192Z,14.63
2022-10-21T10:15:22.188Z,14.59
2022-10-21T10:16:22.172Z,14.59
2022-10-21T10:17:21.911Z,14.56
2022-10-21T10:18:22.163Z,14.61
2022-10-21T10:19:21.970Z,14.51
2022-10-21T10:20:22.155Z,14.51
2022-10-21T10:21:21.883Z,14.56
2022-10-21T10:22:22.384Z,14.52
2022-10-21T10:23:22.411Z,14.49
2022-10-21T10:24:22.367Z,14.52
2022-10-21T10:25:22.098Z,14.53
2022-10-21T10:26:21.837Z,14.45
2022-10-21T10:27:21.842Z,14.42
2022-10-21T10:28:22.080Z,14.44
2022-10-21T10:29:22.712Z,14.49
2022-10-21T10:30:22.053Z,14.46
2022-10-21T10:31:22.042Z,14.48
2022-10-21T10:32:22.292Z,14.51
2022-10-21T10:33:22.283Z,14.46
2022-10-21T10:34:22.281Z,14.49
2022-10-21T10:35:22.275Z,14.66
2022-10-21T10:36:22.001Z,14.7
2022-10-21T10:37:21.747Z,14.7
2022-10-21T10:38:22.245Z,14.79
2022-10-21T10:39:21.720Z,14.86
2022-10-21T10:40:21.967Z,14.82
2022-10-21T10:41:21.957Z,14.86
2022-10-21T10:42:21.949Z,14.87
2022-10-21T10:43:22.194Z,14.83
2022-10-21T10:44:21.928Z,14.94
2022-10-21T10:45:22.538Z,14.94
2022-10-21T10:46:21.915Z,14.98
2022-10-21T10:47:21.907Z,15.05
2022-10-21T10:48:22.159Z,15.02
2022-10-21T10:49:21.895Z,15.1
2022-10-21T10:50:22.141Z,15.12
2022-10-21T10:51:22.125Z,15.2
2022-10-21T10:52:22.120Z,15.13
2022-10-21T10:53:21.858Z,15.15
2022-10-21T10:54:21.846Z,15.1
2022-10-21T10:55:22.116Z,15.05
2022-10-21T10:56:21.594Z,15.02
2022-10-21T10:57:24.001Z,15
2022-10-21T10:58:28.346Z,15.05
2022-10-21T10:59:21.584Z,14.98
2022-10-21T11:00:22.067Z,14.97
2022-10-21T11:01:22.654Z,15.01
2022-10-21T11:02:21.785Z,14.97
2022-10-21T11:03:27.619Z,14.94
2022-10-21T11:04:21.774Z,15.01
2022-10-21T11:05:22.023Z,14.94
2022-10-21T11:06:22.024Z,15
2022-10-21T11:07:21.760Z,15.01
2022-10-21T11:08:21.747Z,15.05
2022-10-21T11:09:27.226Z,15.07
2022-10-21T11:10:21.724Z,15.07
2022-10-21T11:11:21.727Z,15.05
2022-10-21T11:12:21.977Z,15.01
2022-10-21T11:13:21.694Z,15.04
2022-10-21T11:14:26.620Z,15
2022-10-21T11:15:21.929Z,15.07
2022-10-21T11:16:21.665Z,14.98
2022-10-21T11:17:22.279Z,15.04
2022-10-21T11:18:30.033Z,15.02
2022-10-21T11:19:21.387Z,15.01
2022-10-21T11:20:21.892Z,15
2022-10-21T11:21:21.628Z,14.97
2022-10-21T11:22:21.876Z,15.08
2022-10-21T11:23:21.626Z,14.98
2022-10-21T11:24:21.603Z,15.04
2022-10-21T11:25:21.591Z,15.02
2022-10-21T11:26:21.844Z,15.12
2022-10-21T11:27:23.866Z,15.07
2022-10-21T11:28:21.571Z,15.13
2022-10-21T11:29:21.834Z,15.1
2022-10-21T11:30:21.554Z,15.13
2022-10-21T11:31:21.544Z,15.2
2022-10-21T11:32:21.790Z,15.12
2022-10-21T11:33:22.156Z,15.16
2022-10-21T11:34:21.775Z,15.13
2022-10-21T11:35:21.511Z,15.08
2022-10-21T11:36:21.252Z,15.16
2022-10-21T11:37:21.490Z,15.01
2022-10-21T11:38:21.745Z,15.02
2022-10-21T11:39:26.122Z,15.13
2022-10-21T11:40:21.724Z,15.05
2022-10-21T11:41:25.664Z,15.01
2022-10-21T11:42:21.452Z,15.04
2022-10-21T11:43:21.723Z,15.01
2022-10-21T11:44:21.437Z,14.95
2022-10-21T11:45:21.692Z,14.85
2022-10-21T11:46:21.423Z,14.82
2022-10-21T11:47:21.419Z,14.74
2022-10-21T11:48:21.151Z,14.67
2022-10-21T11:49:22.017Z,14.69
2022-10-21T11:50:21.280Z,14.66
2022-10-21T11:51:21.510Z,14.59
2022-10-21T11:52:21.372Z,14.53
2022-10-21T11:53:21.629Z,14.48
2022-10-21T11:54:21.357Z,14.46
2022-10-21T11:55:21.350Z,14.46
2022-10-21T11:56:21.340Z,14.46
2022-10-21T11:57:21.337Z,14.51
2022-10-21T11:58:21.576Z,14.44
2022-10-21T11:59:21.556Z,14.49
2022-10-21T12:00:21.315Z,14.48
2022-10-21T12:01:21.300Z,14.44
2022-10-21T12:02:21.335Z,14.34
2022-10-21T12:03:21.387Z,14.42
2022-10-21T12:04:21.375Z,14.39
2022-10-21T12:05:21.968Z,14.33
2022-10-21T12:06:21.352Z,14.45
2022-10-21T12:07:21.352Z,14.49
2022-10-21T12:08:21.537Z,14.42
2022-10-21T12:09:21.332Z,14.52
2022-10-21T12:10:21.571Z,14.49
2022-10-21T12:11:21.576Z,14.48
2022-10-21T12:12:21.047Z,14.53
2022-10-21T12:13:21.582Z,14.48
2022-10-21T12:14:21.541Z,14.51
2022-10-21T12:15:21.286Z,14.45
2022-10-21T12:16:21.016Z,14.48
2022-10-21T12:17:21.527Z,14.48
2022-10-21T12:18:21.558Z,14.51
2022-10-21T12:19:21.504Z,14.36
2022-10-21T12:20:27.925Z,14.39
2022-10-21T12:21:21.354Z,14.34
2022-10-21T12:22:20.963Z,14.33
2022-10-21T12:23:21.207Z,14.33
2022-10-21T12:24:21.464Z,14.27
2022-10-21T12:25:21.448Z,14.33
2022-10-21T12:26:21.439Z,14.28
2022-10-21T12:27:21.187Z,14.34
2022-10-21T12:28:21.424Z,14.31
2022-10-21T12:29:21.157Z,14.36
2022-10-21T12:30:27.393Z,14.42
2022-10-21T12:31:20.889Z,14.49
2022-10-21T12:32:21.389Z,14.53
2022-10-21T12:33:21.137Z,14.48
2022-10-21T12:34:21.373Z,14.51
2022-10-21T12:35:21.104Z,14.49
2022-10-21T12:36:21.443Z,14.63
2022-10-21T12:37:21.206Z,14.52
2022-10-21T12:38:21.354Z,14.44
2022-10-21T12:39:21.348Z,14.52
2022-10-21T12:40:21.327Z,14.42
2022-10-21T12:41:21.308Z,14.39
2022-10-21T12:42:21.308Z,14.31
2022-10-21T12:43:20.779Z,14.27
2022-10-21T12:44:21.282Z,14.08
2022-10-21T12:45:21.022Z,14.06
2022-10-21T12:46:21.014Z,14.08
2022-10-21T12:47:21.793Z,14.09
2022-10-21T12:48:21.781Z,14.01
2022-10-21T12:49:21.779Z,14.01
2022-10-21T12:50:21.768Z,13.93
2022-10-21T12:51:21.754Z,13.99
2022-10-21T12:52:22.056Z,13.83
2022-10-21T12:53:22.027Z,13.78
2022-10-21T12:54:23.247Z,13.72
2022-10-21T12:55:21.721Z,13.73
2022-10-21T12:56:21.722Z,13.58
2022-10-21T12:57:21.701Z,13.62
2022-10-21T12:58:21.696Z,13.55
2022-10-21T12:59:21.941Z,13.44
2022-10-21T13:00:21.842Z,13.47
2022-10-21T13:01:21.546Z,13.47
2022-10-21T13:02:21.660Z,13.44
2022-10-21T13:03:21.648Z,13.37
2022-10-21T13:04:21.645Z,13.31
2022-10-21T13:05:21.371Z,13.4
2022-10-21T13:06:21.634Z,13.37
2022-10-21T13:07:21.863Z,13.32
2022-10-21T13:08:21.651Z,13.29
2022-10-21T13:09:21.962Z,13.39
2022-10-21T13:10:21.586Z,13.39
2022-10-21T13:11:21.580Z,13.25
2022-10-21T13:12:21.562Z,13.28
2022-10-21T13:13:21.555Z,13.29
2022-10-21T13:14:21.802Z,13.31
2022-10-21T13:15:21.802Z,13.21
2022-10-21T13:16:21.552Z,13.39
2022-10-21T13:17:21.774Z,13.37
2022-10-21T13:18:21.588Z,13.44
2022-10-21T13:19:21.241Z,13.39
2022-10-21T13:20:21.745Z,13.4
2022-10-21T13:21:25.207Z,13.4
2022-10-21T13:22:21.471Z,13.44
2022-10-21T13:23:21.470Z,13.37
2022-10-21T13:24:21.766Z,13.37
2022-10-21T13:25:21.727Z,13.27
2022-10-21T13:26:21.430Z,13.21
2022-10-21T13:27:21.740Z,13.19